Orbital elements of FENGYUN 1C DEB
| Launched | 9 May 1999 |
| Flight ended | – |
| Launch site | Taiyuan Space Center, PRC |
| Owner | People's Republic of China |
| NORAD ID | 31018 |
| Date fetched |
Epoch osculation |
Inc. [°] |
Ecc. | RA asc node [hr] |
Arg Peri. [°] |
Mean anom [°] |
Mean motion [rev/day] |
Abs. mag |
| Date fetched |
Epoch osculation |
Inc. [°] |
Ecc. | RA asc node [hr] |
Arg Peri. [°] |
Mean anom [°] |
Mean motion [rev/day] |
Abs. mag |
| 2026 May 07 17:58 | 2026 May 04 16:29:35 | 99.0179 | 0.00587 | 14.5725 | 80.3069 | 280.4732 | 14.17883 | – |
| 2026 May 06 17:57 | 2026 May 04 16:29:35 | 99.0179 | 0.00587 | 14.5725 | 80.3069 | 280.4732 | 14.17883 | – |
| 2026 May 05 17:57 | 2026 May 04 16:29:35 | 99.0179 | 0.00587 | 14.5725 | 80.3069 | 280.4732 | 14.17883 | – |
| 2026 May 04 17:57 | 2026 Apr 29 23:01:12 | 99.0176 | 0.00591 | 14.2524 | 93.4792 | 280.4732 | 14.17883 | – |
| 2026 May 03 17:57 | 2026 Apr 29 23:01:12 | 99.0176 | 0.00591 | 14.2524 | 93.4792 | 280.4732 | 14.17883 | – |
| 2026 May 02 17:57 | 2026 Apr 29 23:01:12 | 99.0176 | 0.00591 | 14.2524 | 93.4792 | 280.4732 | 14.17883 | – |
| 2026 May 01 17:56 | 2026 Apr 29 23:01:12 | 99.0176 | 0.00591 | 14.2524 | 93.4792 | 280.4732 | 14.17883 | – |
| 2026 Apr 30 17:56 | 2026 Apr 29 23:01:12 | 99.0176 | 0.00591 | 14.2524 | 93.4792 | 280.4732 | 14.17883 | – |
| 2026 Apr 29 17:57 | 2026 Apr 24 05:50:00 | 99.0163 | 0.00597 | 13.8655 | 109.2301 | 280.4732 | 14.17883 | – |
| 2026 Apr 28 17:56 | 2026 Apr 24 05:50:00 | 99.0163 | 0.00597 | 13.8655 | 109.2301 | 280.4732 | 14.17883 | – |
| 2026 Apr 27 17:58 | 2026 Apr 24 05:50:00 | 99.0163 | 0.00597 | 13.8655 | 109.2301 | 280.4732 | 14.17883 | – |
| 2026 Apr 26 17:58 | 2026 Apr 24 05:50:00 | 99.0163 | 0.00597 | 13.8655 | 109.2301 | 280.4732 | 14.17883 | – |
| 2026 Apr 25 17:58 | 2026 Apr 24 05:50:00 | 99.0163 | 0.00597 | 13.8655 | 109.2301 | 280.4732 | 14.17883 | – |
| 2026 Apr 24 17:59 | 2026 Apr 24 05:50:00 | 99.0163 | 0.00597 | 13.8655 | 109.2301 | 280.4732 | 14.17883 | – |
| 2026 Apr 23 17:57 | 2026 Apr 17 16:19:06 | 99.0172 | 0.00598 | 13.4213 | 127.3546 | 280.4732 | 14.17883 | – |
| 2026 Apr 22 17:57 | 2026 Apr 17 16:19:06 | 99.0172 | 0.00598 | 13.4213 | 127.3546 | 280.4732 | 14.17883 | – |
| 2026 Apr 21 17:57 | 2026 Apr 17 16:19:06 | 99.0172 | 0.00598 | 13.4213 | 127.3546 | 280.4732 | 14.17883 | – |
| 2026 Apr 20 17:57 | 2026 Apr 17 16:19:06 | 99.0172 | 0.00598 | 13.4213 | 127.3546 | 280.4732 | 14.17883 | – |
| 2026 Apr 19 17:58 | 2026 Apr 17 16:19:06 | 99.0172 | 0.00598 | 13.4213 | 127.3546 | 280.4732 | 14.17883 | – |
| 2026 Apr 18 17:56 | 2026 Apr 11 16:21:01 | 99.0165 | 0.00599 | 13.0153 | 143.7988 | 280.4732 | 14.17883 | – |
| 2026 Apr 16 17:57 | 2026 Apr 11 16:21:01 | 99.0165 | 0.00599 | 13.0153 | 143.7988 | 280.4732 | 14.17883 | – |
| 2026 Apr 14 17:57 | 2026 Apr 11 16:21:01 | 99.0165 | 0.00599 | 13.0153 | 143.7988 | 280.4732 | 14.17883 | – |
| 2026 Apr 13 17:57 | 2026 Apr 11 16:21:01 | 99.0165 | 0.00599 | 13.0153 | 143.7988 | 280.4732 | 14.17883 | – |
| 2026 Apr 12 17:57 | 2026 Apr 08 05:21:21 | 99.0165 | 0.00599 | 12.7813 | 153.3917 | 280.4732 | 14.17883 | – |
| 2026 Apr 11 17:57 | 2026 Apr 08 05:21:21 | 99.0165 | 0.00599 | 12.7813 | 153.3917 | 280.4732 | 14.17883 | – |
| 2026 Apr 10 17:58 | 2026 Apr 08 05:21:21 | 99.0165 | 0.00599 | 12.7813 | 153.3917 | 280.4732 | 14.17883 | – |